createdAt,value
2022-12-25T00:05:55.149Z,62.81
2022-12-25T00:08:22.053Z,62.92
2022-12-25T00:10:53.700Z,63.60
2022-12-25T00:13:24.110Z,64.97
2022-12-25T00:15:51.954Z,63.55
2022-12-25T00:18:18.520Z,63.98
2022-12-25T00:20:45.813Z,65.87
2022-12-25T00:23:12.932Z,64.57
2022-12-25T00:25:41.419Z,64.10
2022-12-25T00:28:10.270Z,66.72
2022-12-25T00:30:38.039Z,68.26
2022-12-25T00:33:07.844Z,69.37
2022-12-25T00:35:36.137Z,68.07
2022-12-25T00:38:03.262Z,69.89
2022-12-25T00:40:29.789Z,68.27
2022-12-25T00:42:56.348Z,67.14
2022-12-25T00:45:23.124Z,66.85
2022-12-25T00:47:50.182Z,65.98
2022-12-25T00:50:16.749Z,64.79
2022-12-25T00:52:43.733Z,64.95
2022-12-25T00:55:10.467Z,66.98
2022-12-25T00:57:37.433Z,66.13
2022-12-25T01:00:04.010Z,64.54
2022-12-25T01:02:31.061Z,65.16
2022-12-25T01:04:57.633Z,64.82
2022-12-25T01:07:24.260Z,64.49
2022-12-25T01:09:51.222Z,62.47
2022-12-25T01:12:18.163Z,63.65
2022-12-25T01:14:44.974Z,63.51
2022-12-25T01:17:11.813Z,62.47
2022-12-25T01:19:38.464Z,61.87
2022-12-25T01:22:05.682Z,61.20
2022-12-25T01:24:32.440Z,60.50
2022-12-25T01:26:59.406Z,59.70
2022-12-25T01:29:26.161Z,59.80
2022-12-25T01:31:53.707Z,59.57
2022-12-25T01:34:20.611Z,59.25
2022-12-25T01:36:47.559Z,59.02
2022-12-25T01:39:15.153Z,58.40
2022-12-25T01:41:41.691Z,59.90
2022-12-25T01:44:09.085Z,59.19
2022-12-25T01:46:36.561Z,60.04
2022-12-25T01:49:03.361Z,59.24
2022-12-25T01:51:30.284Z,58.82
2022-12-25T01:53:57.743Z,58.49
2022-12-25T01:56:24.293Z,58.33
2022-12-25T01:58:51.837Z,58.72
2022-12-25T02:01:19.260Z,58.59
2022-12-25T02:03:46.052Z,58.90
2022-12-25T02:06:12.994Z,60.21
2022-12-25T02:08:39.670Z,61.50
2022-12-25T02:11:07.231Z,60.06
2022-12-25T02:13:34.102Z,59.07
2022-12-25T02:19:04.639Z,59.09
2022-12-25T02:21:31.548Z,59.01
2022-12-25T02:23:58.336Z,58.84
2022-12-25T02:26:25.324Z,59.92
2022-12-25T02:28:52.431Z,60.54
2022-12-25T02:31:19.334Z,59.64
2022-12-25T02:33:47.189Z,59.69
2022-12-25T02:42:19.636Z,62.38
2022-12-25T02:44:46.198Z,60.81
2022-12-25T02:47:14.010Z,59.89
2022-12-25T02:49:41.026Z,60.02
2022-12-25T02:52:08.019Z,59.86
2022-12-25T02:54:35.846Z,59.75
2022-12-25T02:57:02.635Z,60.21
2022-12-25T02:59:31.795Z,60.05
2022-12-25T03:01:58.640Z,60.17
2022-12-25T03:04:25.523Z,60.31
2022-12-25T03:06:52.428Z,59.85
2022-12-25T03:09:21.275Z,59.73
2022-12-25T03:11:48.260Z,60.96
2022-12-25T03:14:17.132Z,60.46
2022-12-25T03:16:45.601Z,61.10
2022-12-25T03:19:12.608Z,60.72
2022-12-25T03:21:41.178Z,60.72
2022-12-25T03:26:37.383Z,60.79
2022-12-25T03:29:04.334Z,61.19
2022-12-25T03:31:31.625Z,60.78
2022-12-25T03:33:59.608Z,60.63
2022-12-25T03:36:27.029Z,61.49
2022-12-25T03:38:54.938Z,64.22
2022-12-25T03:41:23.605Z,65.56
2022-12-25T03:43:50.506Z,65.06
2022-12-25T03:46:17.961Z,65.04
2022-12-25T03:48:45.599Z,64.14
2022-12-25T03:51:14.035Z,62.56
2022-12-25T03:53:40.833Z,64.03
2022-12-25T03:56:07.744Z,64.66
2022-12-25T03:58:34.517Z,63.74
2022-12-25T04:01:01.516Z,63.81
2022-12-25T04:03:28.415Z,64.87
2022-12-25T04:05:55.387Z,62.78
2022-12-25T04:08:23.189Z,66.22
2022-12-25T04:10:54.936Z,65.78
2022-12-25T04:13:42.610Z,63.53
2022-12-25T04:16:30.100Z,63.25
2022-12-25T04:19:19.231Z,63.43
2022-12-25T04:21:56.941Z,65.47
2022-12-25T04:24:24.399Z,67.08
2022-12-25T04:26:51.345Z,67.83
2022-12-25T04:29:18.106Z,67.82
2022-12-25T04:31:44.967Z,66.65
2022-12-25T04:34:12.687Z,67.25
2022-12-25T04:36:39.559Z,68.50
2022-12-25T04:41:58.890Z,65.23
2022-12-25T04:44:26.552Z,64.20
2022-12-25T04:46:53.469Z,65.36
2022-12-25T04:49:20.145Z,64.63
2022-12-25T04:51:47.208Z,65.93
2022-12-25T04:54:13.897Z,69.27
2022-12-25T04:56:46.020Z,67.99
2022-12-25T05:02:22.936Z,67.00
2022-12-25T05:04:50.826Z,66.14
2022-12-25T05:07:21.776Z,67.46
2022-12-25T05:09:49.500Z,65.58
2022-12-25T05:12:17.285Z,65.63
2022-12-25T05:17:53.648Z,64.42
2022-12-25T05:20:21.095Z,66.88
2022-12-25T05:22:47.609Z,66.68
2022-12-25T05:25:15.103Z,66.19
2022-12-25T05:27:41.830Z,65.13
2022-12-25T05:30:08.370Z,64.99
2022-12-25T05:32:35.422Z,63.64
2022-12-25T05:35:02.167Z,61.97
2022-12-25T05:37:29.171Z,61.24
2022-12-25T05:39:56.049Z,62.53
2022-12-25T05:42:22.993Z,62.35
2022-12-25T05:44:49.719Z,62.30
2022-12-25T05:47:16.381Z,61.34
2022-12-25T05:49:43.860Z,61.36
2022-12-25T05:52:10.834Z,62.11
2022-12-25T05:54:38.490Z,61.03
2022-12-25T05:57:05.703Z,60.00
2022-12-25T05:59:32.298Z,61.68
2022-12-25T06:02:01.065Z,63.47
2022-12-25T06:04:28.255Z,65.18
2022-12-25T06:06:57.178Z,67.02
2022-12-25T06:12:39.910Z,64.82
2022-12-25T06:15:10.275Z,65.86
2022-12-25T06:17:37.031Z,66.41
2022-12-25T06:20:04.026Z,65.29
2022-12-25T06:22:31.009Z,63.60
2022-12-25T06:24:58.052Z,63.23
2022-12-25T06:27:24.755Z,62.55
2022-12-25T06:29:51.657Z,61.82
2022-12-25T06:32:22.036Z,62.85
2022-12-25T06:34:48.861Z,62.62
2022-12-25T06:40:25.101Z,64.20
2022-12-25T06:42:51.712Z,64.68
2022-12-25T06:45:18.456Z,64.94
2022-12-25T06:47:45.139Z,63.99
2022-12-25T06:50:12.409Z,63.59
2022-12-25T06:52:39.106Z,61.92
2022-12-25T06:55:06.356Z,60.24
2022-12-25T06:57:33.804Z,59.85
2022-12-25T07:00:00.747Z,59.78
2022-12-25T07:02:29.375Z,59.85
2022-12-25T07:04:59.274Z,60.02
2022-12-25T07:07:25.885Z,60.45
2022-12-25T07:09:52.834Z,60.75
2022-12-25T07:12:19.641Z,62.11
2022-12-25T07:14:46.374Z,62.37
2022-12-25T07:20:22.140Z,62.78
2022-12-25T07:22:49.228Z,62.96
2022-12-25T07:25:16.053Z,62.82
2022-12-25T07:27:43.086Z,62.26
2022-12-25T07:30:13.112Z,63.64
2022-12-25T07:32:40.961Z,65.81
2022-12-25T07:38:25.290Z,64.57
2022-12-25T07:40:52.288Z,64.67
2022-12-25T07:43:19.240Z,65.47
2022-12-25T07:45:49.578Z,66.44
2022-12-25T07:48:17.205Z,67.94
2022-12-25T07:50:44.265Z,69.07
2022-12-25T07:53:13.470Z,67.86
2022-12-25T07:55:40.149Z,66.75
2022-12-25T07:58:07.104Z,64.69
2022-12-25T08:00:34.386Z,62.18
2022-12-25T08:03:01.448Z,61.00
2022-12-25T08:05:30.831Z,60.97
2022-12-25T08:08:00.832Z,60.09
2022-12-25T08:10:29.252Z,59.71
2022-12-25T08:12:56.208Z,59.35
2022-12-25T08:15:29.922Z,59.41
2022-12-25T08:17:56.741Z,58.73
2022-12-25T08:20:23.723Z,58.52
2022-12-25T08:22:51.236Z,58.17
2022-12-25T08:25:18.180Z,58.82
2022-12-25T08:27:45.679Z,58.28
2022-12-25T08:30:12.571Z,57.92
2022-12-25T08:32:42.290Z,57.60
2022-12-25T08:35:09.671Z,56.95
2022-12-25T08:37:39.491Z,57.58
2022-12-25T08:40:07.695Z,57.60
2022-12-25T08:42:34.565Z,57.66
2022-12-25T08:45:01.548Z,56.67
2022-12-25T08:47:28.357Z,59.67
2022-12-25T08:49:56.671Z,60.33
2022-12-25T08:52:23.824Z,60.32
2022-12-25T08:54:50.680Z,59.33
2022-12-25T08:57:17.625Z,58.50
2022-12-25T09:02:54.313Z,58.36
2022-12-25T09:05:24.134Z,57.28
2022-12-25T09:07:55.481Z,56.53
2022-12-25T09:10:22.582Z,56.48
2022-12-25T09:12:50.349Z,56.49
2022-12-25T09:15:17.328Z,56.17
2022-12-25T09:17:45.840Z,56.32
2022-12-25T09:20:14.894Z,61.31
2022-12-25T09:22:43.856Z,62.17
2022-12-25T09:25:11.873Z,62.88
2022-12-25T09:27:40.989Z,63.71
2022-12-25T09:30:10.608Z,62.37
2022-12-25T09:32:37.354Z,60.68
2022-12-25T09:35:03.964Z,62.67
2022-12-25T09:40:18.041Z,59.28
2022-12-25T09:42:44.748Z,60.61
2022-12-25T09:45:12.222Z,59.81
2022-12-25T09:47:39.194Z,61.11
2022-12-25T09:50:08.255Z,61.30
2022-12-25T09:52:34.854Z,60.23
2022-12-25T09:55:05.113Z,61.71
2022-12-25T09:57:33.700Z,59.42
2022-12-25T10:03:00.419Z,58.32
2022-12-25T10:11:37.222Z,57.17
2022-12-25T10:14:15.792Z,58.01
2022-12-25T10:16:49.582Z,57.28
2022-12-25T10:19:17.079Z,57.87
2022-12-25T10:21:47.710Z,59.45
2022-12-25T10:24:26.877Z,58.36
2022-12-25T10:29:48.801Z,56.89
2022-12-25T10:32:28.935Z,56.52
2022-12-25T10:34:59.262Z,56.51
2022-12-25T10:37:35.257Z,56.43
2022-12-25T10:40:13.257Z,56.23
2022-12-25T10:42:44.075Z,55.61
2022-12-25T10:45:17.763Z,54.93
2022-12-25T10:48:18.898Z,57.29
2022-12-25T10:50:46.063Z,58.04
2022-12-25T10:53:15.203Z,56.30
2022-12-25T10:55:53.521Z,54.90
2022-12-25T10:58:21.243Z,55.01
2022-12-25T11:01:04.310Z,55.26
2022-12-25T11:03:48.589Z,55.66
2022-12-25T11:06:23.188Z,55.03
2022-12-25T11:08:56.825Z,55.20
2022-12-25T11:11:40.664Z,54.57
2022-12-25T11:14:12.050Z,54.88
2022-12-25T11:16:41.407Z,56.65
2022-12-25T11:19:21.026Z,55.77
2022-12-25T11:21:49.859Z,55.55
2022-12-25T11:25:55.400Z,56.82
2022-12-25T11:27:19.730Z,59.32
2022-12-25T11:30:14.269Z,56.57
2022-12-25T11:32:49.031Z,56.54
2022-12-25T11:35:18.320Z,55.35
2022-12-25T11:37:48.444Z,54.10
2022-12-25T11:40:25.046Z,53.60
2022-12-25T11:42:52.945Z,53.98
2022-12-25T11:48:07.187Z,53.80
2022-12-25T11:50:34.019Z,53.26
2022-12-25T11:53:29.825Z,53.11
2022-12-25T11:55:59.513Z,54.28
2022-12-25T12:04:42.642Z,53.94
2022-12-25T12:07:15.709Z,55.55
2022-12-25T12:09:50.946Z,55.42
2022-12-25T12:12:27.604Z,55.90
2022-12-25T12:17:59.733Z,56.03
2022-12-25T12:20:29.701Z,53.99
2022-12-25T12:25:50.660Z,55.39
2022-12-25T12:28:22.841Z,54.59
2022-12-25T12:30:52.840Z,55.41
2022-12-25T12:33:39.206Z,55.03
2022-12-25T12:36:06.478Z,54.63
2022-12-25T12:41:50.636Z,54.98
2022-12-25T12:47:18.036Z,54.15
2022-12-25T12:49:53.556Z,53.82
2022-12-25T12:52:45.779Z,54.63
2022-12-25T12:58:06.511Z,54.63
2022-12-25T13:00:49.094Z,56.80
2022-12-25T13:03:17.329Z,56.65
2022-12-25T13:06:14.982Z,55.80
2022-12-25T13:09:17.682Z,54.97
2022-12-25T13:14:35.315Z,55.74
2022-12-25T13:17:06.155Z,56.76
2022-12-25T13:22:57.889Z,56.36
2022-12-25T13:34:09.759Z,55.59
2022-12-25T13:37:28.531Z,55.06
2022-12-25T13:39:41.737Z,54.11
2022-12-25T13:42:11.151Z,55.04
2022-12-25T13:47:26.608Z,54.32
2022-12-25T13:56:14.023Z,54.17
2022-12-25T14:01:31.794Z,54.25
2022-12-25T14:03:58.676Z,55.61
2022-12-25T14:06:25.216Z,54.91
2022-12-25T14:08:51.861Z,55.24
2022-12-25T14:11:26.000Z,54.92
2022-12-25T14:14:06.295Z,54.85
2022-12-25T14:16:39.965Z,54.86
2022-12-25T14:25:34.752Z,54.93
2022-12-25T14:30:45.679Z,55.67
2022-12-25T14:36:03.327Z,55.39
2022-12-25T14:38:50.790Z,55.49
2022-12-25T14:41:26.324Z,55.58
2022-12-25T14:47:41.418Z,55.90
2022-12-25T14:50:14.149Z,54.87
2022-12-25T14:52:46.711Z,54.64
2022-12-25T14:58:02.483Z,55.91
2022-12-25T15:03:16.469Z,56.39
2022-12-25T15:08:34.556Z,55.07
2022-12-25T15:11:04.060Z,55.61
2022-12-25T15:13:38.114Z,55.02
2022-12-25T15:16:08.099Z,55.69
2022-12-25T15:18:38.335Z,56.84
2022-12-25T15:23:55.053Z,55.94
2022-12-25T15:32:32.169Z,56.42
2022-12-25T15:35:08.126Z,56.28
2022-12-25T15:37:37.924Z,56.35
2022-12-25T15:40:10.608Z,56.26
2022-12-25T15:42:47.484Z,56.46
2022-12-25T15:45:37.587Z,56.99
2022-12-25T15:48:18.228Z,56.87
2022-12-25T15:50:48.300Z,58.27
2022-12-25T15:53:17.388Z,58.15
2022-12-25T15:56:08.161Z,58.22
2022-12-25T16:01:42.041Z,61.09
2022-12-25T16:04:14.580Z,60.29
2022-12-25T16:06:50.821Z,59.17
2022-12-25T16:09:20.052Z,58.94
2022-12-25T16:11:49.160Z,58.79
2022-12-25T16:14:17.343Z,58.86
2022-12-25T16:16:49.759Z,59.78
2022-12-25T16:19:19.231Z,60.61
2022-12-25T16:40:16.184Z,61.42
2022-12-25T16:42:43.959Z,61.44
2022-12-25T16:45:11.164Z,60.89
2022-12-25T16:47:38.131Z,60.11
2022-12-25T16:50:05.065Z,60.30
2022-12-25T16:52:31.634Z,62.48
2022-12-25T16:55:00.116Z,61.54
2022-12-25T16:57:27.945Z,62.52
2022-12-25T16:59:54.793Z,61.87
2022-12-25T17:05:09.512Z,60.16
2022-12-25T17:07:38.826Z,60.25
2022-12-25T17:10:08.251Z,61.34
2022-12-25T17:12:35.464Z,61.45
2022-12-25T17:15:04.702Z,61.20
2022-12-25T17:17:33.148Z,62.92
2022-12-25T17:19:59.997Z,67.10
2022-12-25T17:22:27.626Z,69.34
2022-12-25T17:24:57.806Z,68.69
2022-12-25T17:39:13.327Z,66.08
2022-12-25T17:41:43.817Z,62.37
2022-12-25T17:44:15.489Z,63.58
2022-12-25T17:46:43.036Z,61.95
2022-12-25T17:49:13.089Z,63.81
2022-12-25T17:51:47.694Z,64.29
2022-12-25T17:54:20.115Z,63.84
2022-12-25T17:56:49.087Z,61.51
2022-12-25T17:59:17.882Z,61.39
2022-12-25T18:01:44.671Z,60.01
2022-12-25T18:04:14.654Z,60.20
2022-12-25T18:06:41.293Z,60.74
2022-12-25T18:09:08.172Z,59.39
2022-12-25T18:11:36.768Z,60.45
2022-12-25T18:14:05.491Z,60.43
2022-12-25T18:16:32.396Z,60.94
2022-12-25T18:18:59.138Z,60.87
2022-12-25T18:21:26.648Z,62.64
2022-12-25T18:23:53.390Z,66.39
2022-12-25T18:26:20.142Z,65.88
2022-12-25T18:28:46.755Z,63.47
2022-12-25T18:31:13.677Z,61.61
2022-12-25T18:33:41.247Z,61.48
2022-12-25T18:36:14.230Z,61.41
2022-12-25T18:38:59.723Z,62.29
2022-12-25T18:41:45.090Z,62.66
2022-12-25T18:44:19.794Z,62.29
2022-12-25T18:46:47.351Z,60.56
2022-12-25T18:49:14.225Z,59.53
2022-12-25T18:51:41.138Z,59.10
2022-12-25T18:54:09.393Z,62.10
2022-12-25T18:56:37.228Z,62.36
2022-12-25T18:59:04.433Z,62.96
2022-12-25T19:01:31.068Z,63.90
2022-12-25T19:04:04.322Z,66.39
2022-12-25T19:06:32.329Z,67.91
2022-12-25T19:08:59.009Z,68.15
2022-12-25T19:11:25.859Z,67.13
2022-12-25T19:13:54.098Z,67.15
2022-12-25T19:19:20.170Z,63.84
2022-12-25T19:21:49.530Z,63.02
2022-12-25T19:24:18.204Z,61.82
2022-12-25T19:29:26.085Z,60.56
2022-12-25T19:31:52.627Z,61.87
2022-12-25T19:34:21.384Z,62.74
2022-12-25T19:36:50.317Z,64.65
2022-12-25T19:42:11.026Z,61.21
2022-12-25T19:45:02.314Z,61.46
2022-12-25T19:47:31.403Z,60.12
2022-12-25T19:55:35.698Z,63.63
2022-12-25T19:58:04.917Z,63.07
2022-12-25T20:00:31.612Z,64.46
2022-12-25T20:02:58.992Z,67.29
2022-12-25T20:05:25.708Z,64.81
2022-12-25T20:08:05.436Z,63.52
2022-12-25T20:13:45.160Z,66.49
2022-12-25T20:16:11.947Z,65.87
2022-12-25T20:18:38.514Z,65.06
2022-12-25T20:21:05.159Z,65.84
2022-12-25T20:32:15.752Z,59.96
2022-12-25T20:34:44.500Z,60.12
2022-12-25T20:37:11.840Z,59.13
2022-12-25T20:39:40.892Z,58.77
2022-12-25T20:54:30.351Z,61.07
2022-12-25T20:57:07.321Z,62.30
2022-12-25T20:59:37.576Z,66.12
2022-12-25T21:02:05.104Z,63.41
2022-12-25T21:04:34.844Z,64.84
2022-12-25T21:07:06.888Z,65.96
2022-12-25T21:09:34.731Z,65.10
2022-12-25T21:12:07.690Z,62.24
2022-12-25T21:14:37.381Z,67.10
2022-12-25T21:17:06.952Z,65.90
2022-12-25T21:19:34.628Z,67.21
2022-12-25T21:22:01.185Z,65.17
2022-12-25T21:24:32.128Z,65.62
2022-12-25T21:27:01.633Z,62.25
2022-12-25T21:29:28.445Z,61.88
2022-12-25T21:32:16.640Z,63.11
2022-12-25T21:34:49.251Z,61.18
2022-12-25T21:37:29.277Z,60.49
2022-12-25T21:39:56.143Z,61.19
2022-12-25T21:42:23.218Z,60.52
2022-12-25T21:44:49.979Z,60.21
2022-12-25T21:47:16.740Z,62.37
2022-12-25T21:49:43.557Z,60.97
2022-12-25T21:52:10.377Z,61.22
2022-12-25T22:07:49.513Z,64.20
2022-12-25T22:10:17.262Z,63.32
2022-12-25T22:12:45.675Z,61.54
2022-12-25T22:15:12.939Z,59.78
2022-12-25T22:17:42.280Z,60.35
2022-12-25T22:20:08.908Z,62.36
2022-12-25T22:22:36.399Z,63.10
2022-12-25T22:27:54.249Z,63.29
2022-12-25T22:30:24.938Z,65.25
2022-12-25T22:32:56.462Z,64.96
2022-12-25T22:35:23.106Z,67.01
2022-12-25T22:40:34.711Z,69.30
2022-12-25T22:43:01.539Z,69.82
2022-12-25T22:45:28.276Z,69.97
2022-12-25T22:47:54.985Z,69.97
2022-12-25T22:50:26.075Z,69.65
2022-12-25T22:52:54.557Z,68.71
2022-12-25T22:55:21.663Z,67.50
2022-12-25T22:57:48.554Z,66.01
2022-12-25T23:00:15.137Z,65.49
2022-12-25T23:02:42.154Z,64.22
2022-12-25T23:05:09.280Z,64.50
2022-12-25T23:07:35.932Z,67.08
2022-12-25T23:10:02.669Z,67.58
2022-12-25T23:12:29.199Z,67.44
2022-12-25T23:14:55.892Z,67.54
2022-12-25T23:17:22.541Z,65.08
2022-12-25T23:19:58.835Z,65.74
2022-12-25T23:22:31.420Z,65.69
2022-12-25T23:24:58.022Z,65.04
2022-12-25T23:27:24.582Z,63.95
2022-12-25T23:29:51.416Z,66.70
2022-12-25T23:32:17.936Z,64.69
2022-12-25T23:34:44.872Z,68.96
2022-12-25T23:37:11.728Z,68.54
2022-12-25T23:39:40.806Z,66.05
2022-12-25T23:42:07.341Z,67.34
2022-12-25T23:44:33.983Z,68.75
2022-12-25T23:47:03.061Z,68.69
2022-12-25T23:49:29.663Z,69.80
2022-12-25T23:51:57.056Z,69.24
2022-12-25T23:54:23.597Z,70.14
2022-12-25T23:56:50.154Z,68.51
2022-12-25T23:59:16.645Z,70.29
